Time;durP1;ratioP1;P1;durP2;ratioP2;P2;SDS_P1;SDS_P2;PMS_P1;PMS_P2;Temp;Humidity;BMP_temperature;BMP_pressure;BME280_temperature;BME280_humidity;BME280_pressure;Samples;Min_cycle;Max_cycle;Signal;HPM_P1;HPM_P2
2022/04/09 00:00:48;;;;;;;;;;;;;;;11.94;57.34;94461.06;5136401;27;1038;-50
2022/04/09 00:03:14;;;;;;;;;;;;;;;11.67;57.87;94454.50;5136414;27;1993;-50
2022/04/09 00:05:40;;;;;;;;;;;;;;;11.70;57.70;94457.66;5136362;27;980;-50
2022/04/09 00:08:06;;;;;;;;;;;;;;;11.48;58.34;94456.72;5136211;27;1029;-50
2022/04/09 00:10:32;;;;;;;;;;;;;;;11.53;58.57;94451.63;5135978;27;1044;-50
2022/04/09 00:12:58;;;;;;;;;;;;;;;11.59;57.97;94457.25;5136008;27;973;-50
2022/04/09 00:15:24;;;;;;;;;;;;;;;11.38;58.42;94453.44;5136393;27;995;-50
2022/04/09 00:17:50;;;;;;;;;;;;;;;11.05;59.29;94452.94;5135784;27;1086;-50
2022/04/09 00:20:17;;;;;;;;;;;;;;;10.70;59.91;94448.06;5136332;27;983;-50
2022/04/09 00:22:44;;;;;;;;;;;;;;;10.77;60.67;94453.50;5135986;27;1992;-50
2022/04/09 00:25:11;;;;;;;;;;;;;;;10.74;61.44;94462.72;5135928;27;1026;-50
2022/04/09 00:27:37;;;;;;;;;;;;;;;10.96;60.36;94460.19;5135830;27;1008;-50
2022/04/09 00:30:04;;;;;;;;;;;;;;;11.10;59.80;94459.41;5135325;27;1854;-50
2022/04/09 00:32:30;;;;;;;;;;;;;;;11.03;59.38;94461.16;5135718;27;987;-50
2022/04/09 00:34:57;;;;;;;;;;;;;;;10.89;60.04;94462.78;5135882;27;1035;-50
2022/04/09 00:37:23;;;;;;;;;;;;;;;10.58;60.58;94457.50;5135569;27;1023;-50
2022/04/09 00:39:49;;;;;;;;;;;;;;;10.74;60.12;94457.38;5135756;27;1000;-49
2022/04/09 00:42:16;;;;;;;;;;;;;;;10.87;60.16;94445.22;5134929;27;1902;-49
2022/04/09 00:44:42;;;;;;;;;;;;;;;10.69;60.60;94449.06;5135512;27;1052;-50
2022/04/09 00:47:09;;;;;;;;;;;;;;;10.51;61.00;94443.19;5124951;27;1122;-50
2022/04/09 00:49:38;;;;;;;;;;;;;;;10.41;60.73;94442.59;5114840;28;1036;-50
2022/04/09 00:52:05;;;;;;;;;;;;;;;10.18;61.04;94454.03;5102725;28;1161;-49
2022/04/09 00:54:32;;;;;;;;;;;;;;;10.21;60.98;94447.53;5094217;28;1013;-50
2022/04/09 00:57:04;;;;;;;;;;;;;;;10.40;61.30;94433.75;5094247;28;1036;-49
2022/04/09 00:59:32;;;;;;;;;;;;;;;10.21;61.43;94437.66;5094273;28;1041;-50
2022/04/09 01:01:58;;;;;;;;;;;;;;;9.80;62.26;94429.03;5093879;28;1997;-49
2022/04/09 01:04:24;;;;;;;;;;;;;;;9.93;62.04;94427.47;5094305;28;1005;-48
2022/04/09 01:06:51;;;;;;;;;;;;;;;10.08;61.79;94424.06;5093878;28;1214;-50
2022/04/09 01:09:17;;;;;;;;;;;;;;;10.21;61.26;94418.97;5094020;28;985;-49
2022/04/09 01:11:43;;;;;;;;;;;;;;;10.30;61.15;94423.28;5093789;28;1941;-50
2022/04/09 01:14:13;;;;;;;;;;;;;;;10.43;62.00;94417.34;5094214;28;933;-49
2022/04/09 01:16:39;;;;;;;;;;;;;;;10.27;61.07;94412.91;5094086;28;958;-49
2022/04/09 01:19:05;;;;;;;;;;;;;;;9.89;62.62;94404.78;5094120;28;962;-49
2022/04/09 01:21:31;;;;;;;;;;;;;;;10.05;62.20;94390.50;5093751;28;1000;-49
2022/04/09 01:23:59;;;;;;;;;;;;;;;9.97;62.42;94388.72;5093570;28;1910;-49
2022/04/09 01:26:25;;;;;;;;;;;;;;;9.95;62.99;94385.41;5093623;28;1084;-49
2022/04/09 01:28:51;;;;;;;;;;;;;;;10.25;63.19;94387.41;5093724;28;1020;-49
2022/04/09 01:31:17;;;;;;;;;;;;;;;10.40;63.03;94396.34;5093703;28;1076;-49
2022/04/09 01:33:44;;;;;;;;;;;;;;;10.37;62.62;94401.19;5093510;28;1869;-49
2022/04/09 01:36:10;;;;;;;;;;;;;;;10.39;62.00;94399.19;5093653;28;1045;-49
2022/04/09 01:38:37;;;;;;;;;;;;;;;10.47;62.08;94397.28;5093406;28;1048;-48
2022/04/09 01:41:03;;;;;;;;;;;;;;;10.14;62.60;94399.31;5092833;28;1053;-49
2022/04/09 01:43:29;;;;;;;;;;;;;;;10.12;62.83;94398.66;5093431;28;1913;-49
2022/04/09 01:45:55;;;;;;;;;;;;;;;10.12;63.01;94396.81;5093677;28;1085;-49
2022/04/09 01:48:21;;;;;;;;;;;;;;;10.22;62.80;94395.75;5113371;28;1168;-49
2022/04/09 01:50:47;;;;;;;;;;;;;;;10.11;62.96;94387.16;5115114;27;1198;-50
2022/04/09 01:53:13;;;;;;;;;;;;;;;10.29;62.61;94391.38;5134068;27;1027;-49
2022/04/09 01:55:40;;;;;;;;;;;;;;;10.36;63.48;94397.69;5134495;27;1117;-49
2022/04/09 01:58:06;;;;;;;;;;;;;;;10.44;62.86;94391.47;5134011;27;1023;-50
2022/04/09 02:00:32;;;;;;;;;;;;;;;10.09;62.32;94394.50;5134466;27;975;-49
2022/04/09 02:02:58;;;;;;;;;;;;;;;9.64;64.22;94398.75;5134013;27;1995;-49
2022/04/09 02:05:24;;;;;;;;;;;;;;;9.39;65.53;94406.03;5134484;27;1003;-49
2022/04/09 02:07:51;;;;;;;;;;;;;;;9.44;65.11;94401.00;5134347;28;1200;-49
2022/04/09 02:10:18;;;;;;;;;;;;;;;9.67;64.71;94401.06;5134348;28;1180;-49
2022/04/09 02:12:45;;;;;;;;;;;;;;;9.89;64.37;94394.13;5133943;28;1027;-49
2022/04/09 02:15:12;;;;;;;;;;;;;;;10.02;63.45;94395.41;5134326;28;1024;-49
2022/04/09 02:17:38;;;;;;;;;;;;;;;10.12;64.01;94390.66;5133984;28;968;-49
2022/04/09 02:20:05;;;;;;;;;;;;;;;10.04;63.12;94398.72;5133964;28;1040;-49
2022/04/09 02:22:35;;;;;;;;;;;;;;;9.57;64.63;94401.25;5133732;28;2014;-49
2022/04/09 02:25:05;;;;;;;;;;;;;;;9.30;65.80;94399.88;5133886;28;1118;-49
2022/04/09 02:27:31;;;;;;;;;;;;;;;9.30;65.46;94389.19;5134248;28;964;-49
2022/04/09 02:29:57;;;;;;;;;;;;;;;9.43;65.01;94409.16;5134137;28;958;-49
2022/04/09 02:32:23;;;;;;;;;;;;;;;9.67;64.61;94393.03;5133957;28;1086;-49
2022/04/09 02:34:52;;;;;;;;;;;;;;;9.80;64.64;94389.00;5133987;28;1036;-49
2022/04/09 02:37:18;;;;;;;;;;;;;;;9.70;63.96;94386.53;5134146;28;987;-48
2022/04/09 02:39:44;;;;;;;;;;;;;;;9.30;64.67;94383.88;5133642;28;1032;-49
2022/04/09 02:42:12;;;;;;;;;;;;;;;9.31;65.19;94385.50;5133787;28;2013;-49
2022/04/09 02:44:39;;;;;;;;;;;;;;;9.67;64.45;94393.03;5115549;28;953;-49
2022/04/09 02:47:05;;;;;;;;;;;;;;;9.96;63.79;94384.41;5124076;28;1080;-49
2022/04/09 02:49:31;;;;;;;;;;;;;;;10.04;64.26;94374.69;5113288;28;1023;-49
2022/04/09 02:51:58;;;;;;;;;;;;;;;9.73;63.70;94373.69;5103617;28;1287;-49
2022/04/09 02:54:24;;;;;;;;;;;;;;;9.47;64.63;94373.97;5096836;28;978;-49
2022/04/09 02:56:50;;;;;;;;;;;;;;;9.36;65.20;94374.34;5096598;28;963;-49
2022/04/09 02:59:16;;;;;;;;;;;;;;;9.54;64.96;94379.44;5096406;28;1298;-49
2022/04/09 03:01:46;;;;;;;;;;;;;;;9.55;64.89;94376.59;5096595;28;1914;-49
2022/04/09 03:04:13;;;;;;;;;;;;;;;9.37;65.34;94378.66;5096765;28;962;-48
2022/04/09 03:06:39;;;;;;;;;;;;;;;9.30;65.46;94383.03;5096761;28;958;-48
2022/04/09 03:09:05;;;;;;;;;;;;;;;9.29;65.17;94387.53;5096381;28;1029;-49
2022/04/09 03:11:31;;;;;;;;;;;;;;;9.36;65.12;94385.84;5096606;28;1290;-49
2022/04/09 03:13:57;;;;;;;;;;;;;;;9.29;66.42;94382.19;5096014;28;968;-48
2022/04/09 03:16:23;;;;;;;;;;;;;;;9.29;66.20;94387.53;5096277;28;1013;-49
2022/04/09 03:18:49;;;;;;;;;;;;;;;9.07;65.47;94386.44;5096267;28;1048;-49
2022/04/09 03:21:15;;;;;;;;;;;;;;;8.76;66.49;94373.84;5096420;28;966;-49
2022/04/09 03:23:41;;;;;;;;;;;;;;;8.57;66.87;94375.03;5078184;28;1977;-48
2022/04/09 03:26:07;;;;;;;;;;;;;;;8.60;67.61;94368.53;5096094;28;1004;-49
2022/04/09 03:28:33;;;;;;;;;;;;;;;8.77;67.53;94366.69;5096159;28;992;-49
2022/04/09 03:30:59;;;;;;;;;;;;;;;8.88;66.65;94374.31;5096195;28;1033;-49
2022/04/09 03:33:26;;;;;;;;;;;;;;;8.60;66.49;94377.34;5095788;28;1053;-49
2022/04/09 03:35:52;;;;;;;;;;;;;;;8.64;66.86;94383.19;5096050;28;1012;-49
2022/04/09 03:38:18;;;;;;;;;;;;;;;8.73;66.77;94371.50;5096079;28;1032;-48
2022/04/09 03:40:44;;;;;;;;;;;;;;;8.63;66.67;94370.84;5095527;28;1029;-48
2022/04/09 03:43:10;;;;;;;;;;;;;;;8.76;66.59;94367.66;5095645;28;1961;-48
2022/04/09 03:45:36;;;;;;;;;;;;;;;8.78;67.20;94363.00;5095649;28;1826;-48
2022/04/09 03:48:02;;;;;;;;;;;;;;;8.53;66.52;94370.19;5113087;28;1076;-48
2022/04/09 03:50:28;;;;;;;;;;;;;;;8.35;67.93;94371.16;5116182;28;1060;-48
2022/04/09 03:52:54;;;;;;;;;;;;;;;8.37;68.23;94371.84;5135275;27;1232;-48
2022/04/09 03:55:20;;;;;;;;;;;;;;;8.47;67.49;94381.53;5136272;27;1067;-47
2022/04/09 03:57:46;;;;;;;;;;;;;;;8.52;68.32;94373.88;5136662;27;1051;-48
2022/04/09 04:00:14;;;;;;;;;;;;;;;8.59;66.87;94377.50;5136235;27;1032;-48
2022/04/09 04:02:40;;;;;;;;;;;;;;;8.34;66.87;94382.00;5135919;27;1887;-48
2022/04/09 04:05:07;;;;;;;;;;;;;;;8.30;67.58;94376.16;5135980;27;1033;-48
2022/04/09 04:07:33;;;;;;;;;;;;;;;8.60;67.07;94368.53;5136216;27;1035;-48
2022/04/09 04:10:09;;;;;;;;;;;;;;;8.67;67.67;94366.00;5135875;27;1016;-48
2022/04/09 04:12:35;;;;;;;;;;;;;;;8.57;67.86;94367.03;5135984;27;925;-48
2022/04/09 04:15:02;;;;;;;;;;;;;;;8.47;68.22;94363.69;5135976;27;968;-48
2022/04/09 04:17:41;;;;;;;;;;;;;;;8.39;67.57;94364.50;5136293;27;973;-48
2022/04/09 04:20:08;;;;;;;;;;;;;;;8.20;68.08;94347.03;5136052;27;1007;-48
2022/04/09 04:22:34;;;;;;;;;;;;;;;8.43;67.56;94354.38;5136180;27;1998;-48
2022/04/09 04:25:00;;;;;;;;;;;;;;;8.83;66.60;94346.50;5135828;27;1030;-48
2022/04/09 04:27:27;;;;;;;;;;;;;;;9.10;66.10;94345.25;5136181;27;1031;-48
2022/04/09 04:29:57;;;;;;;;;;;;;;;9.27;66.39;94362.03;5135494;27;1083;-48
2022/04/09 04:32:23;;;;;;;;;;;;;;;9.50;65.42;94346.09;5136125;27;1039;-48
2022/04/09 04:34:49;;;;;;;;;;;;;;;9.79;64.90;94353.47;5135470;27;1095;-48
2022/04/09 04:37:15;;;;;;;;;;;;;;;9.85;65.67;94354.59;5135819;27;968;-48
2022/04/09 04:39:40;;;;;;;;;;;;;;;9.76;66.30;94354.63;5135475;27;1134;-48
2022/04/09 04:42:07;;;;;;;;;;;;;;;9.74;65.02;94356.66;5135285;27;1988;-54
2022/04/09 04:44:33;;;;;;;;;;;;;;;10.09;64.48;94353.59;5117117;27;1072;-48
2022/04/09 04:46:59;;;;;;;;;;;;;;;10.86;62.81;94366.03;5117191;27;1190;-48
2022/04/09 04:49:25;;;;;;;;;;;;;;;11.55;60.71;94360.41;5135578;27;937;-50
2022/04/09 04:51:51;;;;;;;;;;;;;;;12.27;58.43;94362.31;5125112;27;1205;-49
2022/04/09 04:54:17;;;;;;;;;;;;;;;11.91;60.29;94357.81;5114841;28;973;-48
2022/04/09 04:56:43;;;;;;;;;;;;;;;12.07;59.57;94350.56;5114846;28;1036;-48
2022/04/09 04:59:09;;;;;;;;;;;;;;;13.14;56.92;94354.16;5114588;28;1016;-48
2022/04/09 05:01:37;;;;;;;;;;;;;;;13.66;56.49;94355.53;5114673;28;1155;-48
2022/04/09 05:04:03;;;;;;;;;;;;;;;14.04;54.70;94352.38;5114474;28;1913;-48
2022/04/09 05:06:30;;;;;;;;;;;;;;;14.23;53.40;94358.84;5114529;28;1040;-48
2022/04/09 05:08:56;;;;;;;;;;;;;;;13.55;55.21;94348.03;5114650;28;1043;-48
2022/04/09 05:11:22;;;;;;;;;;;;;;;12.92;56.82;94340.81;5114398;28;1052;-48
2022/04/09 05:13:48;;;;;;;;;;;;;;;12.67;57.72;94343.94;5114106;28;965;-48
2022/04/09 05:16:14;;;;;;;;;;;;;;;12.64;58.81;94346.97;5114451;28;1118;-48
2022/04/09 05:18:40;;;;;;;;;;;;;;;12.66;59.23;94344.94;5114290;28;1024;-48
2022/04/09 05:21:06;;;;;;;;;;;;;;;12.87;57.54;94356.66;5114011;28;1103;-48
2022/04/09 05:23:32;;;;;;;;;;;;;;;12.91;58.25;94357.91;5114160;28;1914;-48
2022/04/09 05:25:58;;;;;;;;;;;;;;;13.07;57.91;94356.78;5114165;28;1055;-48
2022/04/09 05:28:24;;;;;;;;;;;;;;;13.20;57.42;94354.22;5114313;28;992;-48
2022/04/09 05:30:50;;;;;;;;;;;;;;;13.34;56.75;94347.09;5113893;28;1869;-48
2022/04/09 05:33:17;;;;;;;;;;;;;;;13.47;57.26;94346.34;5114272;28;968;-48
2022/04/09 05:35:43;;;;;;;;;;;;;;;13.58;56.67;94342.25;5113809;28;1071;-49
2022/04/09 05:38:09;;;;;;;;;;;;;;;13.68;55.58;94345.41;5114162;28;973;-49
2022/04/09 05:40:36;;;;;;;;;;;;;;;13.94;55.04;94346.53;5114233;28;1038;-49
2022/04/09 05:43:03;;;;;;;;;;;;;;;14.21;54.16;94348.28;5113673;28;1913;-49
2022/04/09 05:45:30;;;;;;;;;;;;;;;14.35;54.92;94349.13;5114135;28;1064;-49
2022/04/09 05:47:56;;;;;;;;;;;;;;;14.55;55.87;94351.03;5113492;28;1136;-49
2022/04/09 05:50:22;;;;;;;;;;;;;;;14.50;54.20;94351.66;5113850;28;959;-49
2022/04/09 05:52:50;;;;;;;;;;;;;;;14.33;54.66;94351.19;5131942;27;1150;-48
2022/04/09 05:55:17;;;;;;;;;;;;;;;14.13;57.61;94351.13;5134211;27;953;-48
2022/04/09 05:57:43;;;;;;;;;;;;;;;14.00;57.56;94351.94;5134007;27;1030;-49
2022/04/09 06:00:10;;;;;;;;;;;;;;;13.93;58.25;94347.59;5134745;27;980;-48
2022/04/09 06:02:39;;;;;;;;;;;;;;;14.10;57.59;94348.88;5133911;27;2285;-49
2022/04/09 06:05:06;;;;;;;;;;;;;;;14.41;56.31;94347.50;5134167;27;1016;-49
2022/04/09 06:07:32;;;;;;;;;;;;;;;14.33;55.80;94345.00;5134051;28;1053;-49
2022/04/09 06:09:58;;;;;;;;;;;;;;;14.36;57.39;94342.75;5134047;28;1128;-48
2022/04/09 06:12:24;;;;;;;;;;;;;;;14.51;56.39;94347.91;5133695;28;1024;-49
2022/04/09 06:14:50;;;;;;;;;;;;;;;14.67;56.00;94348.59;5133966;28;1099;-49
2022/04/09 06:17:16;;;;;;;;;;;;;;;15.19;55.23;94355.00;5134220;28;960;-49
2022/04/09 06:19:43;;;;;;;;;;;;;;;15.81;54.15;94356.31;5134184;28;977;-48
2022/04/09 06:22:10;;;;;;;;;;;;;;;16.06;52.24;94349.41;5134078;28;1983;-48
2022/04/09 06:24:36;;;;;;;;;;;;;;;16.16;52.77;94349.75;5133983;28;965;-48
2022/04/09 06:27:02;;;;;;;;;;;;;;;16.83;51.50;94342.09;5135850;27;1020;-48
2022/04/09 06:29:28;;;;;;;;;;;;;;;17.55;49.86;94328.97;5138128;27;1992;-49
2022/04/09 06:31:54;;;;;;;;;;;;;;;18.34;47.61;94331.81;5137817;27;989;-49
2022/04/09 06:34:20;;;;;;;;;;;;;;;18.95;45.58;94331.75;5138386;27;1052;-49
2022/04/09 06:36:46;;;;;;;;;;;;;;;19.50;44.26;94330.59;5137797;27;1020;-49
2022/04/09 06:39:12;;;;;;;;;;;;;;;19.97;42.42;94336.00;5137806;27;1056;-48
2022/04/09 06:41:38;;;;;;;;;;;;;;;20.79;39.51;94326.75;5137899;27;1025;-49
2022/04/09 06:44:05;;;;;;;;;;;;;;;22.30;36.27;94331.47;5137735;27;1914;-50
2022/04/09 06:46:31;;;;;;;;;;;;;;;23.77;34.51;94335.78;5132825;27;1092;-49
2022/04/09 06:48:57;;;;;;;;;;;;;;;25.04;32.41;94331.16;5116988;28;1083;-50
2022/04/09 06:51:23;;;;;;;;;;;;;;;26.90;30.32;94332.44;5111146;28;1161;-49
2022/04/09 06:53:49;;;;;;;;;;;;;;;28.84;27.04;94334.47;5096376;28;1012;-50
2022/04/09 06:56:15;;;;;;;;;;;;;;;30.87;23.47;94331.28;5096863;28;958;-51
2022/04/09 06:58:41;;;;;;;;;;;;;;;30.60;23.87;94334.06;5096747;28;973;-50
2022/04/09 07:01:08;;;;;;;;;;;;;;;31.55;23.35;94338.88;5096800;28;1074;-50
2022/04/09 07:03:34;;;;;;;;;;;;;;;32.80;21.88;94350.00;5096307;28;1909;-51
2022/04/09 07:06:00;;;;;;;;;;;;;;;33.18;20.75;94349.47;5096534;28;1028;-51
2022/04/09 07:08:26;;;;;;;;;;;;;;;33.16;20.88;94351.75;5096281;28;1115;-50
2022/04/09 07:10:52;;;;;;;;;;;;;;;33.55;20.50;94347.22;5078611;28;962;-51
2022/04/09 07:13:18;;;;;;;;;;;;;;;33.61;20.81;94348.66;5095998;28;1092;-51
2022/04/09 07:15:44;;;;;;;;;;;;;;;33.42;21.03;94351.75;5096630;28;1024;-51
2022/04/09 07:18:10;;;;;;;;;;;;;;;33.64;20.38;94340.56;5096387;28;1040;-51
2022/04/09 07:20:36;;;;;;;;;;;;;;;34.28;20.51;94340.94;5096335;28;1022;-50
2022/04/09 07:23:02;;;;;;;;;;;;;;;34.40;19.95;94341.88;5095761;28;1996;-50
2022/04/09 07:25:29;;;;;;;;;;;;;;;33.54;19.63;94338.09;5096100;28;964;-50
2022/04/09 07:27:55;;;;;;;;;;;;;;;32.38;21.24;94336.47;5096197;28;1023;-50
2022/04/09 07:30:21;;;;;;;;;;;;;;;30.68;23.51;94331.41;5096189;28;978;-50
2022/04/09 07:32:48;;;;;;;;;;;;;;;29.09;25.00;94341.56;5095930;28;988;-50
2022/04/09 07:35:14;;;;;;;;;;;;;;;27.90;26.66;94333.09;5096011;28;1092;-49
2022/04/09 07:37:40;;;;;;;;;;;;;;;26.97;27.75;94322.78;5095139;28;1023;-49
2022/04/09 07:40:07;;;;;;;;;;;;;;;26.63;28.31;94326.28;5095395;28;952;-49
2022/04/09 07:42:34;;;;;;;;;;;;;;;26.24;28.76;94324.22;5095640;28;1987;-49
2022/04/09 07:45:00;;;;;;;;;;;;;;;25.70;30.20;94328.44;5095876;28;992;-49
2022/04/09 07:47:26;;;;;;;;;;;;;;;26.19;29.73;94328.91;5108073;28;1112;-49
2022/04/09 07:49:52;;;;;;;;;;;;;;;26.30;29.96;94333.25;5115789;28;1007;-49
2022/04/09 07:52:18;;;;;;;;;;;;;;;26.16;29.01;94333.03;5129886;27;1141;-49
2022/04/09 07:54:44;;;;;;;;;;;;;;;25.83;29.41;94335.25;5136361;27;1004;-49
2022/04/09 07:57:10;;;;;;;;;;;;;;;26.28;28.40;94330.78;5136473;27;1022;-49
2022/04/09 07:59:36;;;;;;;;;;;;;;;26.52;28.18;94326.56;5136195;27;1032;-49
2022/04/09 08:02:02;;;;;;;;;;;;;;;26.31;28.89;94329.41;5136552;27;1914;-49
2022/04/09 08:04:28;;;;;;;;;;;;;;;26.47;28.78;94332.91;5136154;27;1079;-49
2022/04/09 08:06:54;;;;;;;;;;;;;;;26.38;28.73;94326.38;5136116;27;922;-49
2022/04/09 08:09:20;;;;;;;;;;;;;;;26.25;30.59;94328.59;5136090;27;1015;-49
2022/04/09 08:11:46;;;;;;;;;;;;;;;26.29;29.77;94331.59;5136169;27;1047;-49
2022/04/09 08:14:13;;;;;;;;;;;;;;;25.91;29.20;94325.66;5136222;27;932;-49
2022/04/09 08:16:39;;;;;;;;;;;;;;;25.71;30.86;94323.78;5136414;27;1045;-54
2022/04/09 08:19:05;;;;;;;;;;;;;;;25.61;31.48;94321.91;5136092;27;1040;-49
2022/04/09 08:21:31;;;;;;;;;;;;;;;25.99;30.54;94324.28;5117723;27;1064;-49
2022/04/09 08:23:57;;;;;;;;;;;;;;;26.33;30.26;94324.47;5135735;27;1937;-49
2022/04/09 08:26:23;;;;;;;;;;;;;;;26.39;29.74;94319.78;5135869;27;1044;-49
2022/04/09 08:28:49;;;;;;;;;;;;;;;25.91;30.93;94314.69;5135568;27;1098;-49
2022/04/09 08:31:15;;;;;;;;;;;;;;;25.83;30.83;94318.84;5136015;27;1031;-49
2022/04/09 08:33:42;;;;;;;;;;;;;;;25.86;30.44;94309.25;5135617;27;1091;-49
2022/04/09 08:36:08;;;;;;;;;;;;;;;26.15;29.67;94309.47;5135737;27;1025;-49
2022/04/09 08:38:34;;;;;;;;;;;;;;;26.60;29.90;94313.16;5135414;27;1043;-49
2022/04/09 08:41:03;;;;;;;;;;;;;;;25.94;29.23;94302.44;5135761;27;1031;-49
2022/04/09 08:43:29;;;;;;;;;;;;;;;25.37;29.71;94307.94;5135200;27;1909;-48
2022/04/09 08:45:57;;;;;;;;;;;;;;;24.82;30.90;94302.16;5135567;27;1036;-49
2022/04/09 08:48:23;;;;;;;;;;;;;;;24.72;32.71;94302.94;5135569;27;1016;-49
2022/04/09 08:50:50;;;;;;;;;;;;;;;25.01;32.35;94302.44;5133418;27;1274;-49
2022/04/09 08:53:16;;;;;;;;;;;;;;;24.83;31.57;94306.50;5114556;28;1079;-49
2022/04/09 08:55:44;;;;;;;;;;;;;;;24.63;31.29;94304.56;5114884;28;1036;-49
2022/04/09 08:58:10;;;;;;;;;;;;;;;24.32;32.08;94307.19;5114998;28;966;-49
2022/04/09 09:00:36;;;;;;;;;;;;;;;24.55;32.45;94296.91;5114903;28;1037;-49
2022/04/09 09:03:02;;;;;;;;;;;;;;;24.48;32.25;94301.78;5114646;28;1989;-49
2022/04/09 09:05:30;;;;;;;;;;;;;;;24.19;32.14;94309.56;5114394;28;1040;-49
2022/04/09 09:07:56;;;;;;;;;;;;;;;24.08;32.89;94304.06;5114620;28;958;-49
2022/04/09 09:10:23;;;;;;;;;;;;;;;23.90;33.39;94301.78;5114582;28;957;-48
2022/04/09 09:12:59;;;;;;;;;;;;;;;23.75;32.81;94300.59;5114365;28;1114;-49
2022/04/09 09:15:25;;;;;;;;;;;;;;;23.59;33.46;94302.41;5114211;28;1032;-49
2022/04/09 09:17:56;;;;;;;;;;;;;;;23.31;33.56;94295.38;5114321;28;1015;-49
2022/04/09 09:20:23;;;;;;;;;;;;;;;23.24;33.51;94299.41;5114164;28;1020;-49
2022/04/09 09:22:49;;;;;;;;;;;;;;;23.39;34.00;94294.09;5114051;28;1910;-48
2022/04/09 09:25:15;;;;;;;;;;;;;;;23.55;33.67;94298.56;5114271;28;970;-48
2022/04/09 09:27:41;;;;;;;;;;;;;;;24.01;33.63;94302.69;5114320;28;1012;-49
2022/04/09 09:30:09;;;;;;;;;;;;;;;24.34;33.41;94296.00;5113896;28;929;-49
2022/04/09 09:32:35;;;;;;;;;;;;;;;24.70;32.61;94288.75;5114071;28;1119;-49
2022/04/09 09:35:02;;;;;;;;;;;;;;;25.41;31.05;94284.41;5113836;28;1046;-49
2022/04/09 09:37:29;;;;;;;;;;;;;;;25.87;31.33;94278.84;5113908;28;1028;-49
2022/04/09 09:39:56;;;;;;;;;;;;;;;25.60;30.38;94281.13;5114039;28;1210;-49
2022/04/09 09:42:22;;;;;;;;;;;;;;;25.67;30.27;94281.66;5113926;28;1913;-49
2022/04/09 09:44:49;;;;;;;;;;;;;;;25.62;30.20;94276.19;5113936;28;956;-49
2022/04/09 09:47:16;;;;;;;;;;;;;;;25.23;30.80;94287.69;5113713;28;1200;-49
2022/04/09 09:49:46;;;;;;;;;;;;;;;24.68;31.95;94279.16;5113649;28;1036;-49
2022/04/09 09:52:12;;;;;;;;;;;;;;;24.29;32.30;94263.19;5127063;27;1165;-49
2022/04/09 09:54:53;;;;;;;;;;;;;;;24.30;31.92;94275.75;5134272;27;1111;-49
2022/04/09 09:57:20;;;;;;;;;;;;;;;24.24;31.20;94274.09;5134578;27;956;-49
2022/04/09 09:59:48;;;;;;;;;;;;;;;24.00;31.20;94280.03;5134186;27;981;-49
2022/04/09 10:02:19;;;;;;;;;;;;;;;23.96;30.71;94279.72;5133429;27;1990;-49
2022/04/09 10:04:46;;;;;;;;;;;;;;;24.02;29.88;94283.31;5134421;27;1047;-49
2022/04/09 10:07:14;;;;;;;;;;;;;;;24.06;29.48;94273.50;5133953;28;1247;-49
2022/04/09 10:09:41;;;;;;;;;;;;;;;23.95;29.82;94271.81;5134268;28;1043;-49
2022/04/09 10:12:11;;;;;;;;;;;;;;;23.89;29.86;94270.94;5133946;28;1005;-53
2022/04/09 10:14:39;;;;;;;;;;;;;;;23.83;29.05;94265.72;5134484;28;1067;-48
2022/04/09 10:17:08;;;;;;;;;;;;;;;23.66;29.45;94266.72;5133929;28;1196;-48
2022/04/09 10:19:42;;;;;;;;;;;;;;;23.55;29.64;94260.38;5134368;28;1034;-48
2022/04/09 10:22:11;;;;;;;;;;;;;;;23.72;29.24;94262.91;5133780;28;1914;-48
2022/04/09 10:24:37;;;;;;;;;;;;;;;23.78;28.45;94252.84;5133946;28;1112;-49
2022/04/09 10:27:04;;;;;;;;;;;;;;;23.73;29.00;94261.84;5133724;28;1020;-49
2022/04/09 10:29:47;;;;;;;;;;;;;;;23.82;29.43;94254.00;5134190;28;1051;-48
2022/04/09 10:32:33;;;;;;;;;;;;;;;24.01;30.01;94257.06;5134035;28;1083;-48
2022/04/09 10:34:59;;;;;;;;;;;;;;;24.27;30.09;94257.19;5133699;28;1840;-48
2022/04/09 10:37:25;;;;;;;;;;;;;;;24.66;28.89;94248.53;5134025;28;1023;-48
2022/04/09 10:39:54;;;;;;;;;;;;;;;24.67;27.99;94251.00;5133811;28;981;-48
2022/04/09 10:42:45;;;;;;;;;;;;;;;24.62;28.59;94239.25;5133702;28;1910;-49
2022/04/09 10:45:11;;;;;;;;;;;;;;;24.52;27.90;94235.41;5133802;28;1079;-48
2022/04/09 10:48:14;;;;;;;;;;;;;;;24.54;28.10;94230.47;5119482;28;1226;-49
2022/04/09 10:50:58;;;;;;;;;;;;;;;24.58;28.24;94238.97;5080476;28;1298;-49
2022/04/09 10:53:28;;;;;;;;;;;;;;;24.63;29.43;94228.06;5093127;28;1092;-49
2022/04/09 10:56:13;;;;;;;;;;;;;;;24.59;29.32;94224.22;5092613;28;1016;-49
2022/04/09 10:58:59;;;;;;;;;;;;;;;24.75;28.40;94228.59;5092981;28;1187;-49
2022/04/09 11:01:46;;;;;;;;;;;;;;;24.71;27.52;94227.50;5092706;28;1025;-49
2022/04/09 11:04:35;;;;;;;;;;;;;;;24.67;27.88;94222.88;5092636;28;1905;-48
2022/04/09 11:07:01;;;;;;;;;;;;;;;24.61;28.32;94213.84;5079441;28;1856;-49
2022/04/09 11:09:40;;;;;;;;;;;;;;;24.57;28.01;94211.91;5092934;28;1037;-48
2022/04/09 11:12:06;;;;;;;;;;;;;;;24.38;28.20;94212.41;5092425;28;1012;-49
2022/04/09 11:14:45;;;;;;;;;;;;;;;24.23;28.57;94201.47;5096566;28;1008;-48
2022/04/09 11:17:34;;;;;;;;;;;;;;;24.29;27.71;94203.09;5096142;28;1004;-48
2022/04/09 11:20:10;;;;;;;;;;;;;;;24.33;27.63;94196.81;5083054;28;1672;-48
2022/04/09 11:22:37;;;;;;;;;;;;;;;24.28;27.56;94194.09;5096176;28;1905;-48
2022/04/09 11:25:04;;;;;;;;;;;;;;;24.26;27.46;94190.78;5096130;28;1021;-48
2022/04/09 11:27:30;;;;;;;;;;;;;;;24.28;28.10;94183.19;5095893;28;1056;-49
2022/04/09 11:29:57;;;;;;;;;;;;;;;24.32;27.50;94180.69;5096053;28;1001;-49
2022/04/09 11:32:23;;;;;;;;;;;;;;;24.43;27.36;94187.00;5095776;28;1078;-48
2022/04/09 11:34:57;;;;;;;;;;;;;;;24.41;27.97;94176.34;5095840;28;1036;-48
2022/04/09 11:37:26;;;;;;;;;;;;;;;24.41;27.91;94172.81;5095960;28;965;-49
2022/04/09 11:39:52;;;;;;;;;;;;;;;24.37;27.58;94175.25;5095769;28;1063;-48
2022/04/09 11:42:18;;;;;;;;;;;;;;;24.29;27.04;94165.69;5095704;28;1909;-49
2022/04/09 11:44:45;;;;;;;;;;;;;;;24.38;27.69;94168.72;5095654;28;1025;-49
2022/04/09 11:47:16;;;;;;;;;;;;;;;24.44;27.65;94161.34;5105804;28;1100;-48
2022/04/09 11:49:49;;;;;;;;;;;;;;;24.52;28.31;94158.09;5116109;28;1048;-48
2022/04/09 11:52:27;;;;;;;;;;;;;;;24.46;28.27;94151.78;5129696;27;1233;-49
2022/04/09 11:54:54;;;;;;;;;;;;;;;24.25;26.54;94150.13;5136465;27;1086;-48
2022/04/09 11:57:21;;;;;;;;;;;;;;;24.16;26.69;94144.34;5136225;27;1028;-48
2022/04/09 11:59:51;;;;;;;;;;;;;;;24.07;27.38;94143.25;5136687;27;949;-48
2022/04/09 12:02:21;;;;;;;;;;;;;;;23.96;28.01;94135.03;5136166;27;1909;-48
2022/04/09 12:04:49;;;;;;;;;;;;;;;23.81;27.29;94125.97;5136233;27;1024;-49
2022/04/09 12:07:15;;;;;;;;;;;;;;;23.98;28.63;94123.88;5136242;27;969;-50
2022/04/09 12:09:41;;;;;;;;;;;;;;;24.22;28.67;94129.63;5136296;27;1075;-50
2022/04/09 12:12:08;;;;;;;;;;;;;;;24.27;26.73;94124.16;5135739;27;1004;-50
2022/04/09 12:14:34;;;;;;;;;;;;;;;24.05;27.72;94124.41;5136172;27;1068;-50
2022/04/09 12:17:10;;;;;;;;;;;;;;;24.07;28.01;94126.88;5136391;27;1056;-50
2022/04/09 12:19:37;;;;;;;;;;;;;;;24.23;28.26;94114.06;5136334;27;957;-50
2022/04/09 12:22:12;;;;;;;;;;;;;;;24.27;27.95;94099.59;5135767;27;1071;-49
2022/04/09 12:24:49;;;;;;;;;;;;;;;24.22;27.02;94105.03;5135361;27;1865;-50
2022/04/09 12:27:15;;;;;;;;;;;;;;;24.08;27.11;94093.03;5135844;27;1079;-50
2022/04/09 12:29:52;;;;;;;;;;;;;;;24.10;27.15;94086.19;5135931;27;1024;-49
2022/04/09 12:32:21;;;;;;;;;;;;;;;24.05;27.48;94082.63;5135936;27;1051;-50
2022/04/09 12:34:58;;;;;;;;;;;;;;;24.13;27.53;94076.63;5135882;27;1044;-50
2022/04/09 12:37:24;;;;;;;;;;;;;;;24.25;27.67;94077.19;5135897;27;1027;-49
2022/04/09 12:39:51;;;;;;;;;;;;;;;24.25;27.95;94071.75;5135729;27;1080;-50
2022/04/09 12:42:28;;;;;;;;;;;;;;;24.44;28.40;94076.66;5135527;27;1914;-50
2022/04/09 12:45:08;;;;;;;;;;;;;;;24.45;26.88;94059.97;5135574;27;1027;-50
2022/04/09 12:47:34;;;;;;;;;;;;;;;24.50;28.11;94059.16;5121513;27;1261;-50
2022/04/09 12:50:00;;;;;;;;;;;;;;;24.56;27.26;94047.16;5114981;28;958;-50
2022/04/09 12:52:25;;;;;;;;;;;;;;;24.62;27.14;94046.03;5099969;28;1161;-49
2022/04/09 12:54:52;;;;;;;;;;;;;;;24.69;26.82;94043.84;5094496;28;977;-48
2022/04/09 12:57:18;;;;;;;;;;;;;;;24.68;27.22;94034.03;5094415;28;960;-49
2022/04/09 12:59:45;;;;;;;;;;;;;;;24.62;26.99;94034.31;5094480;28;1001;-48
2022/04/09 13:02:11;;;;;;;;;;;;;;;24.67;27.29;94031.56;5094195;28;1980;-50